Time;durP1;ratioP1;P1;durP2;ratioP2;P2;SDS_P1;SDS_P2;PMS_P1;PMS_P2;Temp;Humidity;BMP_temperature;BMP_pressure;BME280_temperature;BME280_humidity;BME280_pressure;Samples;Min_cycle;Max_cycle;Signal;HPM_P1;HPM_P2
2024/02/16 00:02:18;;;;;;;;;;;;;;;;;;5063669;28;20417;-66
2024/02/16 00:04:44;;;;;;;;;;;;;;;;;;5062656;28;20024;-67
2024/02/16 00:07:10;;;;;;;;;;;;;;;;;;5073698;28;20378;-66
2024/02/16 00:09:36;;;;;;;;;;;;;;;;;;5063695;28;19943;-68
2024/02/16 00:12:02;;;;;;;;;;;;;;;;;;5051653;28;19924;-67
2024/02/16 00:14:28;;;;;;;;;;;;;;;;;;5068571;28;20399;-67
2024/02/16 00:16:54;;;;;;;;;;;;;;;;;;5063036;28;19928;-68
2024/02/16 00:19:20;;;;;;;;;;;;;;;;;;5042825;28;19953;-66
2024/02/16 00:21:46;;;;;;;;;;;;;;;;;;5046485;28;19925;-66
2024/02/16 00:24:12;;;;;;;;;;;;;;;;;;5048239;28;19925;-67
2024/02/16 00:26:41;;;;;;;;;;;;;;;;;;5051648;28;19931;-66
2024/02/16 00:29:07;;;;;;;;;;;;;;;;;;5053624;28;20015;-66
2024/02/16 00:31:33;;;;;;;;;;;;;;;;;;5052960;28;20012;-67
2024/02/16 00:33:59;;;;;;;;;;;;;;;;;;5054078;28;19999;-66
2024/02/16 00:36:24;;;;;;;;;;;;;;;;;;5052674;28;20525;-66
2024/02/16 00:38:50;;;;;;;;;;;;;;;;;;5061530;28;19920;-66
2024/02/16 00:41:16;;;;;;;;;;;;;;;;;;5045307;28;20363;-66
2024/02/16 00:43:44;;;;;;;;;;;;;;;;;;5044275;28;19925;-66
2024/02/16 00:46:10;;;;;;;;;;;;;;;;;;5054810;28;19970;-66
2024/02/16 00:48:36;;;;;;;;;;;;;;;;;;5064636;28;19972;-66
2024/02/16 00:51:03;;;;;;;;;;;;;;;;;;5057639;28;19948;-67
2024/02/16 00:53:29;;;;;;;;;;;;;;;;;;5051829;28;20355;-67
2024/02/16 00:55:55;;;;;;;;;;;;;;;;;;5047105;28;19940;-66
2024/02/16 00:58:21;;;;;;;;;;;;;;;;;;5047715;28;19925;-66
2024/02/16 01:00:47;;;;;;;;;;;;;;;;;;5049227;28;19924;-66
2024/02/16 01:03:13;;;;;;;;;;;;;;;;;;5059645;28;20389;-66
2024/02/16 01:05:40;;;;;;;;;;;;;;;;;;5068186;28;19989;-66
2024/02/16 01:08:06;;;;;;;;;;;;;;;;;;5072535;28;19924;-66
2024/02/16 01:10:32;;;;;;;;;;;;;;;;;;5063274;28;19947;-66
2024/02/16 01:12:57;;;;;;;;;;;;;;;;;;5046248;28;19929;-67
2024/02/16 01:15:23;;;;;;;;;;;;;;;;;;5064891;28;19929;-67
2024/02/16 01:17:49;;;;;;;;;;;;;;;;;;5045201;28;19921;-66
2024/02/16 01:20:15;;;;;;;;;;;;;;;;;;5054646;28;19928;-66
2024/02/16 01:22:41;;;;;;;;;;;;;;;;;;5053814;28;19979;-67
2024/02/16 01:25:08;;;;;;;;;;;;;;;;;;5033823;28;19928;-67
2024/02/16 01:27:35;;;;;;;;;;;;;;;;;;5043227;28;19925;-66
2024/02/16 01:30:01;;;;;;;;;;;;;;;;;;5054409;28;19932;-66
2024/02/16 01:32:27;;;;;;;;;;;;;;;;;;5053827;28;19935;-66
2024/02/16 01:34:53;;;;;;;;;;;;;;;;;;5056360;28;19921;-66
2024/02/16 01:37:18;;;;;;;;;;;;;;;;;;5052034;28;19998;-66
2024/02/16 01:39:45;;;;;;;;;;;;;;;;;;5052509;28;19974;-66
2024/02/16 01:42:11;;;;;;;;;;;;;;;;;;5049456;28;20279;-66
2024/02/16 01:44:37;;;;;;;;;;;;;;;;;;5043481;28;20101;-66
2024/02/16 01:47:04;;;;;;;;;;;;;;;;;;5053543;28;19921;-67
2024/02/16 01:49:30;;;;;;;;;;;;;;;;;;5051058;28;19932;-66
2024/02/16 01:51:56;;;;;;;;;;;;;;;;;;5050723;28;19936;-66
2024/02/16 01:54:22;;;;;;;;;;;;;;;;;;5039519;28;19920;-67
2024/02/16 01:56:48;;;;;;;;;;;;;;;;;;5061748;28;20069;-66
2024/02/16 01:59:14;;;;;;;;;;;;;;;;;;5052547;28;19925;-66
2024/02/16 02:01:40;;;;;;;;;;;;;;;;;;5062449;28;19932;-66
2024/02/16 02:04:06;;;;;;;;;;;;;;;;;;5069453;28;19920;-66
2024/02/16 02:06:32;;;;;;;;;;;;;;;;;;5061745;28;20259;-66
2024/02/16 02:08:58;;;;;;;;;;;;;;;;;;5062964;28;19939;-66
2024/02/16 02:11:24;;;;;;;;;;;;;;;;;;5060171;28;19935;-67
2024/02/16 02:13:50;;;;;;;;;;;;;;;;;;5040682;28;19920;-66
2024/02/16 02:16:16;;;;;;;;;;;;;;;;;;5047285;28;19956;-67
2024/02/16 02:18:43;;;;;;;;;;;;;;;;;;5061164;28;19963;-66
2024/02/16 02:21:09;;;;;;;;;;;;;;;;;;5058597;28;19920;-67
2024/02/16 02:23:35;;;;;;;;;;;;;;;;;;5061977;28;20274;-66
2024/02/16 02:26:01;;;;;;;;;;;;;;;;;;5054388;28;20453;-66
2024/02/16 02:28:27;;;;;;;;;;;;;;;;;;5048303;28;20035;-66
2024/02/16 02:30:53;;;;;;;;;;;;;;;;;;5037669;28;19921;-66
2024/02/16 02:33:19;;;;;;;;;;;;;;;;;;5057794;28;19979;-67
2024/02/16 02:35:46;;;;;;;;;;;;;;;;;;5050700;28;20007;-66
2024/02/16 02:38:12;;;;;;;;;;;;;;;;;;5061837;28;20405;-67
2024/02/16 02:40:38;;;;;;;;;;;;;;;;;;5071018;28;19925;-66
2024/02/16 02:43:05;;;;;;;;;;;;;;;;;;5062075;28;19921;-66
2024/02/16 02:45:31;;;;;;;;;;;;;;;;;;5041078;28;20361;-66
2024/02/16 02:47:57;;;;;;;;;;;;;;;;;;5069488;28;19924;-66
2024/02/16 02:50:24;;;;;;;;;;;;;;;;;;5061488;28;19925;-67
2024/02/16 02:52:50;;;;;;;;;;;;;;;;;;5058001;28;19930;-67
2024/02/16 02:55:16;;;;;;;;;;;;;;;;;;5072046;28;19999;-66
2024/02/16 02:57:42;;;;;;;;;;;;;;;;;;5066868;28;19920;-66
2024/02/16 03:00:10;;;;;;;;;;;;;;;;;;5051337;28;19935;-66
2024/02/16 03:02:37;;;;;;;;;;;;;;;;;;5063580;28;19927;-66
2024/02/16 03:05:03;;;;;;;;;;;;;;;;;;5069586;28;19967;-66
2024/02/16 03:07:29;;;;;;;;;;;;;;;;;;5069695;28;19952;-67
2024/02/16 03:09:55;;;;;;;;;;;;;;;;;;5067183;28;19935;-66
2024/02/16 03:12:21;;;;;;;;;;;;;;;;;;5066059;28;20262;-66
2024/02/16 03:14:46;;;;;;;;;;;;;;;;;;5045852;28;19971;-66
2024/02/16 03:17:13;;;;;;;;;;;;;;;;;;5054958;28;20479;-67
2024/02/16 03:19:39;;;;;;;;;;;;;;;;;;5051127;28;19924;-66
2024/02/16 03:22:05;;;;;;;;;;;;;;;;;;5057573;28;19920;-66
2024/02/16 03:24:30;;;;;;;;;;;;;;;;;;5050962;28;19921;-66
2024/02/16 03:26:56;;;;;;;;;;;;;;;;;;5066662;28;19924;-66
2024/02/16 03:29:22;;;;;;;;;;;;;;;;;;5070565;28;19936;-66
2024/02/16 03:31:48;;;;;;;;;;;;;;;;;;5059924;28;19924;-66
2024/02/16 03:34:14;;;;;;;;;;;;;;;;;;5066682;28;20051;-67
2024/02/16 03:36:40;;;;;;;;;;;;;;;;;;5053298;28;20094;-66
2024/02/16 03:39:08;;;;;;;;;;;;;;;;;;5055422;28;20319;-67
2024/02/16 03:41:34;;;;;;;;;;;;;;;;;;5072526;28;20384;-66
2024/02/16 03:44:01;;;;;;;;;;;;;;;;;;5056339;28;19921;-66
2024/02/16 03:46:27;;;;;;;;;;;;;;;;;;5050748;28;19932;-67
2024/02/16 03:48:52;;;;;;;;;;;;;;;;;;5057883;28;20274;-66
2024/02/16 03:51:18;;;;;;;;;;;;;;;;;;5065419;28;19920;-66
2024/02/16 03:53:45;;;;;;;;;;;;;;;;;;5063424;28;19920;-66
2024/02/16 03:56:12;;;;;;;;;;;;;;;;;;5070180;28;19924;-66
2024/02/16 03:58:38;;;;;;;;;;;;;;;;;;5069654;28;19929;-67
2024/02/16 04:01:05;;;;;;;;;;;;;;;;;;5066560;28;20313;-66
2024/02/16 04:03:31;;;;;;;;;;;;;;;;;;5047186;28;20271;-66
2024/02/16 04:05:59;;;;;;;;;;;;;;;;;;5071671;28;19930;-66
2024/02/16 04:08:25;;;;;;;;;;;;;;;;;;5059603;28;20066;-66
2024/02/16 04:10:51;;;;;;;;;;;;;;;;;;5055127;28;20487;-67
2024/02/16 04:13:17;;;;;;;;;;;;;;;;;;5053224;28;19968;-66
2024/02/16 04:15:43;;;;;;;;;;;;;;;;;;5054273;28;19955;-66
2024/02/16 04:18:09;;;;;;;;;;;;;;;;;;5072503;28;19924;-66
2024/02/16 04:20:35;;;;;;;;;;;;;;;;;;5060484;28;19967;-67
2024/02/16 04:23:01;;;;;;;;;;;;;;;;;;5050873;28;19925;-67
2024/02/16 04:25:26;;;;;;;;;;;;;;;;;;5065608;28;20032;-67
2024/02/16 04:27:52;;;;;;;;;;;;;;;;;;5061824;28;19931;-67
2024/02/16 04:30:18;;;;;;;;;;;;;;;;;;5061607;28;19947;-66
2024/02/16 04:32:44;;;;;;;;;;;;;;;;;;5073334;28;19920;-66
2024/02/16 04:35:11;;;;;;;;;;;;;;;;;;5070120;28;20374;-66
2024/02/16 04:37:37;;;;;;;;;;;;;;;;;;5069459;28;19927;-67
2024/02/16 04:40:04;;;;;;;;;;;;;;;;;;5054959;28;20329;-67
2024/02/16 04:42:30;;;;;;;;;;;;;;;;;;5067907;28;19924;-67
2024/02/16 04:44:56;;;;;;;;;;;;;;;;;;5063689;28;19954;-67
2024/02/16 04:47:22;;;;;;;;;;;;;;;;;;5070524;28;19946;-67
2024/02/16 04:49:47;;;;;;;;;;;;;;;;;;5074065;28;19989;-67
2024/02/16 04:52:13;;;;;;;;;;;;;;;;;;5067640;28;20362;-67
2024/02/16 04:54:40;;;;;;;;;;;;;;;;;;5053499;28;19921;-67
2024/02/16 04:57:07;;;;;;;;;;;;;;;;;;5057790;28;19947;-67
2024/02/16 04:59:33;;;;;;;;;;;;;;;;;;5061396;28;20568;-67
2024/02/16 05:01:59;;;;;;;;;;;;;;;;;;5061783;28;19983;-67
2024/02/16 05:04:25;;;;;;;;;;;;;;;;;;5059627;28;20004;-67
2024/02/16 05:06:52;;;;;;;;;;;;;;;;;;5067942;28;19943;-67
2024/02/16 05:09:18;;;;;;;;;;;;;;;;;;5055529;28;19968;-67
2024/02/16 05:11:44;;;;;;;;;;;;;;;;;;5058493;28;19972;-67
2024/02/16 05:14:11;;;;;;;;;;;;;;;;;;5065489;28;20019;-67
2024/02/16 05:16:37;;;;;;;;;;;;;;;;;;5050082;28;19927;-67
2024/02/16 05:19:03;;;;;;;;;;;;;;;;;;5063026;28;19920;-67
2024/02/16 05:21:29;;;;;;;;;;;;;;;;;;5056886;28;19998;-67
2024/02/16 05:23:55;;;;;;;;;;;;;;;;;;5066249;28;20319;-67
2024/02/16 05:26:21;;;;;;;;;;;;;;;;;;5038583;28;19922;-67
2024/02/16 05:28:47;;;;;;;;;;;;;;;;;;5054726;28;19921;-67
2024/02/16 05:31:14;;;;;;;;;;;;;;;;;;5061486;28;19924;-67
2024/02/16 05:33:40;;;;;;;;;;;;;;;;;;5060077;28;20015;-66
2024/02/16 05:36:06;;;;;;;;;;;;;;;;;;5053318;28;19971;-67
2024/02/16 05:38:35;;;;;;;;;;;;;;;;;;5063355;28;19928;-67
2024/02/16 05:41:01;;;;;;;;;;;;;;;;;;5055242;28;19925;-67
2024/02/16 05:43:27;;;;;;;;;;;;;;;;;;5048161;28;20729;-66
2024/02/16 05:45:53;;;;;;;;;;;;;;;;;;5058945;28;19929;-66
2024/02/16 05:48:19;;;;;;;;;;;;;;;;;;5065669;28;20385;-67
2024/02/16 05:50:45;;;;;;;;;;;;;;;;;;5064510;28;19924;-66
2024/02/16 05:53:11;;;;;;;;;;;;;;;;;;5057622;28;20020;-67
2024/02/16 05:55:37;;;;;;;;;;;;;;;;;;5063871;28;20004;-67
2024/02/16 05:58:05;;;;;;;;;;;;;;;;;;5049646;28;19925;-66
2024/02/16 06:00:31;;;;;;;;;;;;;;;;;;5048104;28;20320;-67
2024/02/16 06:02:57;;;;;;;;;;;;;;;;;;5061536;28;19925;-66
2024/02/16 06:05:23;;;;;;;;;;;;;;;;;;5030690;28;19924;-66
2024/02/16 06:07:49;;;;;;;;;;;;;;;;;;5063520;28;19925;-66
2024/02/16 06:10:15;;;;;;;;;;;;;;;;;;5034318;28;19925;-67
2024/02/16 06:12:41;;;;;;;;;;;;;;;;;;5051322;28;19929;-67
2024/02/16 06:15:07;;;;;;;;;;;;;;;;;;5061244;28;19926;-67
2024/02/16 06:17:33;;;;;;;;;;;;;;;;;;5054323;28;19955;-66
2024/02/16 06:19:59;;;;;;;;;;;;;;;;;;5070210;28;20336;-66
2024/02/16 06:22:25;;;;;;;;;;;;;;;;;;5061760;28;20035;-67
2024/02/16 06:24:50;;;;;;;;;;;;;;;;;;5077648;22;19929;-64
2024/02/16 06:27:16;;;;;;;;;;;;;;;;;;5029351;28;19964;-65
2024/02/16 06:29:42;;;;;;;;;;;;;;;;;;5017043;28;19964;-65
2024/02/16 06:32:11;;;;;;;;;;;;;;;;;;5028453;28;19936;-65
2024/02/16 06:34:36;;;;;;;;;;;;;;;;;;5028611;28;19921;-65
2024/02/16 06:37:03;;;;;;;;;;;;;;;;;;5028763;28;20613;-65
2024/02/16 06:39:30;;;;;;;;;;;;;;;;;;5031443;28;19929;-65
2024/02/16 06:41:56;;;;;;;;;;;;;;;;;;5031439;28;19925;-65
2024/02/16 06:44:22;;;;;;;;;;;;;;;;;;5023778;28;19928;-65
2024/02/16 06:46:48;;;;;;;;;;;;;;;;;;5031610;28;19929;-65
2024/02/16 06:49:14;;;;;;;;;;;;;;;;;;5032144;28;19921;-65
2024/02/16 06:51:40;;;;;;;;;;;;;;;;;;5029773;28;19963;-65
2024/02/16 06:54:07;;;;;;;;;;;;;;;;;;5030706;28;20330;-65
2024/02/16 06:56:33;;;;;;;;;;;;;;;;;;5030335;28;20329;-65
2024/02/16 06:58:59;;;;;;;;;;;;;;;;;;5024987;28;19925;-65
2024/02/16 07:01:30;;;;;;;;;;;;;;;;;;5019333;28;21475;-65
2024/02/16 07:03:56;;;;;;;;;;;;;;;;;;5030200;28;20267;-65
2024/02/16 07:06:21;;;;;;;;;;;;;;;;;;5031857;28;19921;-65
2024/02/16 07:08:47;;;;;;;;;;;;;;;;;;5026186;28;19979;-65
2024/02/16 07:11:13;;;;;;;;;;;;;;;;;;5030486;28;19971;-65
2024/02/16 07:13:39;;;;;;;;;;;;;;;;;;5025426;28;19927;-65
2024/02/16 07:16:06;;;;;;;;;;;;;;;;;;5022705;28;20012;-65
2024/02/16 07:18:33;;;;;;;;;;;;;;;;;;5025465;28;19925;-65
2024/02/16 07:20:59;;;;;;;;;;;;;;;;;;5029489;28;19947;-65
2024/02/16 07:23:25;;;;;;;;;;;;;;;;;;5028464;28;20357;-64
2024/02/16 07:25:51;;;;;;;;;;;;;;;;;;5028091;28;19925;-65
2024/02/16 07:28:17;;;;;;;;;;;;;;;;;;5030632;28;19921;-65
2024/02/16 07:30:43;;;;;;;;;;;;;;;;;;5020711;28;19921;-64
2024/02/16 07:33:08;;;;;;;;;;;;;;;;;;5031001;28;19936;-64
2024/02/16 07:35:35;;;;;;;;;;;;;;;;;;5031508;28;19925;-65
2024/02/16 07:38:01;;;;;;;;;;;;;;;;;;5029557;28;19971;-65
2024/02/16 07:40:27;;;;;;;;;;;;;;;;;;5031533;28;19933;-65
2024/02/16 07:42:54;;;;;;;;;;;;;;;;;;5030805;28;19921;-64
2024/02/16 07:45:20;;;;;;;;;;;;;;;;;;5011748;28;19921;-64
2024/02/16 07:47:46;;;;;;;;;;;;;;;;;;5029268;28;19925;-64
2024/02/16 07:50:12;;;;;;;;;;;;;;;;;;5031336;28;19925;-64
2024/02/16 07:52:37;;;;;;;;;;;;;;;;;;5029785;28;19928;-64
2024/02/16 07:55:04;;;;;;;;;;;;;;;;;;5013186;28;19921;-65
2024/02/16 07:57:30;;;;;;;;;;;;;;;;;;5030150;28;20007;-65
2024/02/16 07:59:56;;;;;;;;;;;;;;;;;;5029791;28;19921;-65
2024/02/16 08:02:22;;;;;;;;;;;;;;;;;;5018007;28;19929;-65
2024/02/16 08:04:48;;;;;;;;;;;;;;;;;;5026574;28;19929;-64
2024/02/16 08:07:14;;;;;;;;;;;;;;;;;;5030826;28;19921;-65
2024/02/16 08:09:40;;;;;;;;;;;;;;;;;;5031207;28;19925;-65
2024/02/16 08:12:06;;;;;;;;;;;;;;;;;;5030795;28;20699;-64
2024/02/16 08:14:32;;;;;;;;;;;;;;;;;;5031098;28;19922;-64
2024/02/16 08:16:58;;;;;;;;;;;;;;;;;;5014979;28;19925;-64
2024/02/16 08:19:24;;;;;;;;;;;;;;;;;;5030523;28;19925;-64
2024/02/16 08:21:50;;;;;;;;;;;;;;;;;;5034436;28;20447;-65
2024/02/16 08:24:16;;;;;;;;;;;;;;;;;;5034090;28;19978;-65
2024/02/16 08:26:42;;;;;;;;;;;;;;;;;;5034941;28;19925;-65
2024/02/16 08:29:08;;;;;;;;;;;;;;;;;;5033856;28;19933;-65
2024/02/16 08:31:34;;;;;;;;;;;;;;;;;;5018325;28;19926;-64
2024/02/16 08:34:00;;;;;;;;;;;;;;;;;;5032444;28;19921;-65
2024/02/16 08:36:29;;;;;;;;;;;;;;;;;;5028711;28;19986;-64
2024/02/16 08:38:55;;;;;;;;;;;;;;;;;;5029821;28;19925;-65
2024/02/16 08:41:21;;;;;;;;;;;;;;;;;;5029870;28;20336;-65
2024/02/16 08:43:47;;;;;;;;;;;;;;;;;;5015507;28;20002;-65
2024/02/16 08:46:13;;;;;;;;;;;;;;;;;;5026412;28;19941;-65
2024/02/16 08:48:39;;;;;;;;;;;;;;;;;;5032033;28;20027;-65
2024/02/16 08:51:06;;;;;;;;;;;;;;;;;;5030218;28;19936;-65
2024/02/16 08:53:32;;;;;;;;;;;;;;;;;;5028623;28;19925;-65
2024/02/16 08:55:57;;;;;;;;;;;;;;;;;;5029930;28;19932;-65
2024/02/16 08:58:23;;;;;;;;;;;;;;;;;;5031956;28;19921;-63
2024/02/16 09:00:49;;;;;;;;;;;;;;;;;;5029476;28;19994;-64
2024/02/16 09:03:16;;;;;;;;;;;;;;;;;;5023035;28;20034;-64
2024/02/16 09:05:43;;;;;;;;;;;;;;;;;;5029994;28;19921;-64
2024/02/16 09:08:09;;;;;;;;;;;;;;;;;;5031990;28;20283;-65
2024/02/16 09:10:35;;;;;;;;;;;;;;;;;;5032329;28;19943;-65
2024/02/16 09:13:01;;;;;;;;;;;;;;;;;;5030619;28;19925;-64
2024/02/16 09:15:27;;;;;;;;;;;;;;;;;;5022243;28;19955;-64
2024/02/16 09:17:53;;;;;;;;;;;;;;;;;;5027596;28;20327;-64
2024/02/16 09:20:22;;;;;;;;;;;;;;;;;;5028722;28;20421;-64
2024/02/16 09:22:47;;;;;;;;;;;;;;;;;;5012042;28;19922;-64
2024/02/16 09:25:14;;;;;;;;;;;;;;;;;;5020521;28;19925;-65
2024/02/16 09:27:44;;;;;;;;;;;;;;;;;;5033518;28;19925;-64
2024/02/16 09:30:10;;;;;;;;;;;;;;;;;;5030871;28;19983;-65
2024/02/16 09:32:36;;;;;;;;;;;;;;;;;;5027429;28;19921;-65
2024/02/16 09:35:02;;;;;;;;;;;;;;;;;;5014566;28;20302;-64
2024/02/16 09:37:28;;;;;;;;;;;;;;;;;;5031576;28;19932;-64
2024/02/16 09:39:54;;;;;;;;;;;;;;;;;;5026753;28;19971;-64
2024/02/16 09:42:20;;;;;;;;;;;;;;;;;;5031439;28;19982;-64
2024/02/16 09:44:46;;;;;;;;;;;;;;;;;;5030478;28;20500;-64
2024/02/16 09:47:12;;;;;;;;;;;;;;;;;;5033044;28;19974;-63
2024/02/16 09:49:38;;;;;;;;;;;;;;;;;;5028668;28;19933;-64
2024/02/16 09:52:04;;;;;;;;;;;;;;;;;;5020279;28;20433;-64
2024/02/16 09:54:30;;;;;;;;;;;;;;;;;;5028722;28;20433;-64
2024/02/16 09:56:56;;;;;;;;;;;;;;;;;;5031756;28;19932;-64
2024/02/16 09:59:22;;;;;;;;;;;;;;;;;;5032583;28;19925;-64
2024/02/16 10:01:48;;;;;;;;;;;;;;;;;;5017376;28;19963;-65
2024/02/16 10:04:14;;;;;;;;;;;;;;;;;;5031040;28;19991;-65
2024/02/16 10:06:40;;;;;;;;;;;;;;;;;;5031745;28;19925;-64
2024/02/16 10:09:06;;;;;;;;;;;;;;;;;;5032412;28;19925;-65
2024/02/16 10:11:32;;;;;;;;;;;;;;;;;;5031914;28;19921;-65
2024/02/16 10:13:58;;;;;;;;;;;;;;;;;;5013318;28;20670;-64
2024/02/16 10:16:24;;;;;;;;;;;;;;;;;;5028457;28;20466;-64
2024/02/16 10:18:50;;;;;;;;;;;;;;;;;;5029292;28;19956;-65
2024/02/16 10:21:15;;;;;;;;;;;;;;;;;;5028024;28;20022;-64
2024/02/16 10:23:41;;;;;;;;;;;;;;;;;;5029877;28;19921;-64
2024/02/16 10:26:07;;;;;;;;;;;;;;;;;;5029940;28;19929;-64
2024/02/16 10:28:33;;;;;;;;;;;;;;;;;;5028529;28;19928;-64
2024/02/16 10:31:02;;;;;;;;;;;;;;;;;;5029113;28;19943;-64
2024/02/16 10:33:31;;;;;;;;;;;;;;;;;;5029923;28;19988;-64
2024/02/16 10:35:57;;;;;;;;;;;;;;;;;;5027843;28;19925;-65
2024/02/16 10:38:23;;;;;;;;;;;;;;;;;;5031033;28;19927;-65
2024/02/16 10:40:49;;;;;;;;;;;;;;;;;;5028733;28;19924;-65
2024/02/16 10:43:15;;;;;;;;;;;;;;;;;;5029967;28;20385;-65
2024/02/16 10:45:41;;;;;;;;;;;;;;;;;;5029674;28;19921;-65
2024/02/16 10:48:10;;;;;;;;;;;;;;;;;;5030610;28;20401;-65
2024/02/16 10:50:36;;;;;;;;;;;;;;;;;;5022239;28;19965;-65
2024/02/16 10:53:02;;;;;;;;;;;;;;;;;;5012222;28;19980;-65
2024/02/16 10:55:28;;;;;;;;;;;;;;;;;;5025870;28;20004;-65
2024/02/16 10:57:55;;;;;;;;;;;;;;;;;;5025634;28;19928;-65
2024/02/16 11:00:22;;;;;;;;;;;;;;;;;;5026903;28;19929;-68
2024/02/16 11:02:48;;;;;;;;;;;;;;;;;;5022600;28;19925;-65
2024/02/16 11:05:14;;;;;;;;;;;;;;;;;;5030095;28;19931;-65
2024/02/16 11:07:40;;;;;;;;;;;;;;;;;;5026148;28;19921;-65
2024/02/16 11:10:06;;;;;;;;;;;;;;;;;;5026489;28;20844;-65
2024/02/16 11:12:32;;;;;;;;;;;;;;;;;;5026626;28;19932;-65
2024/02/16 11:14:58;;;;;;;;;;;;;;;;;;5029773;28;19925;-65
2024/02/16 11:17:25;;;;;;;;;;;;;;;;;;5027718;28;20359;-65
2024/02/16 11:19:50;;;;;;;;;;;;;;;;;;5031281;28;19932;-65
2024/02/16 11:22:17;;;;;;;;;;;;;;;;;;5016744;28;19925;-65
2024/02/16 11:24:44;;;;;;;;;;;;;;;;;;5031098;28;19999;-65
2024/02/16 11:27:10;;;;;;;;;;;;;;;;;;5027882;28;20624;-65
2024/02/16 11:29:36;;;;;;;;;;;;;;;;;;5030535;28;19972;-65
2024/02/16 11:32:02;;;;;;;;;;;;;;;;;;5026667;28;19957;-65
2024/02/16 11:34:28;;;;;;;;;;;;;;;;;;5025177;28;20019;-64
2024/02/16 11:36:54;;;;;;;;;;;;;;;;;;5025581;28;19925;-64
2024/02/16 11:39:20;;;;;;;;;;;;;;;;;;5026929;28;20953;-64
2024/02/16 11:41:46;;;;;;;;;;;;;;;;;;5016327;28;20011;-64
2024/02/16 11:44:13;;;;;;;;;;;;;;;;;;5027936;28;20387;-65
2024/02/16 11:46:39;;;;;;;;;;;;;;;;;;5027282;28;19929;-64
2024/02/16 11:49:05;;;;;;;;;;;;;;;;;;5034789;28;19929;-64
2024/02/16 11:51:31;;;;;;;;;;;;;;;;;;5032876;28;19921;-64
2024/02/16 11:53:57;;;;;;;;;;;;;;;;;;5028025;28;19921;-64
2024/02/16 11:56:24;;;;;;;;;;;;;;;;;;5030683;28;19935;-64
2024/02/16 11:58:50;;;;;;;;;;;;;;;;;;5033760;28;19940;-64
2024/02/16 12:01:16;;;;;;;;;;;;;;;;;;5033199;28;19972;-65
2024/02/16 12:03:42;;;;;;;;;;;;;;;;;;5032977;28;19925;-64
2024/02/16 12:06:08;;;;;;;;;;;;;;;;;;5032093;28;20012;-65
2024/02/16 12:08:34;;;;;;;;;;;;;;;;;;5032765;28;20461;-65
2024/02/16 12:11:00;;;;;;;;;;;;;;;;;;5025761;28;20383;-64
2024/02/16 12:13:26;;;;;;;;;;;;;;;;;;5028818;28;19925;-65
2024/02/16 12:15:52;;;;;;;;;;;;;;;;;;5025547;28;19928;-65
2024/02/16 12:18:17;;;;;;;;;;;;;;;;;;5031149;28;19925;-66
2024/02/16 12:20:47;;;;;;;;;;;;;;;;;;5031956;28;19941;-64
2024/02/16 12:23:13;;;;;;;;;;;;;;;;;;5027696;28;19921;-64
2024/02/16 12:25:39;;;;;;;;;;;;;;;;;;5022153;28;20014;-64
2024/02/16 12:28:05;;;;;;;;;;;;;;;;;;5028363;28;19921;-63
2024/02/16 12:30:31;;;;;;;;;;;;;;;;;;5027736;28;19991;-65
2024/02/16 12:32:57;;;;;;;;;;;;;;;;;;5026981;28;19952;-65
2024/02/16 12:35:23;;;;;;;;;;;;;;;;;;5029086;28;20064;-65
2024/02/16 12:37:48;;;;;;;;;;;;;;;;;;5033650;28;20020;-66
2024/02/16 12:40:14;;;;;;;;;;;;;;;;;;5032595;28;20019;-66
2024/02/16 12:42:40;;;;;;;;;;;;;;;;;;5033502;28;20000;-65
2024/02/16 12:45:06;;;;;;;;;;;;;;;;;;5029120;28;20011;-65
2024/02/16 12:47:32;;;;;;;;;;;;;;;;;;5030733;28;20003;-65
2024/02/16 12:49:58;;;;;;;;;;;;;;;;;;5028756;28;19940;-66
2024/02/16 12:52:24;;;;;;;;;;;;;;;;;;5032048;28;20436;-66
2024/02/16 12:54:50;;;;;;;;;;;;;;;;;;5033662;28;19944;-66
2024/02/16 12:57:16;;;;;;;;;;;;;;;;;;5028439;28;20290;-65
2024/02/16 12:59:42;;;;;;;;;;;;;;;;;;5030198;28;19971;-65
2024/02/16 13:02:08;;;;;;;;;;;;;;;;;;5014484;28;19929;-65
2024/02/16 13:04:34;;;;;;;;;;;;;;;;;;5029409;28;20012;-65
2024/02/16 13:07:00;;;;;;;;;;;;;;;;;;5029125;28;19929;-65
2024/02/16 13:09:28;;;;;;;;;;;;;;;;;;5027206;28;20347;-64
2024/02/16 13:11:54;;;;;;;;;;;;;;;;;;5033151;28;19944;-63
2024/02/16 13:14:20;;;;;;;;;;;;;;;;;;5032062;28;20359;-63
2024/02/16 13:16:46;;;;;;;;;;;;;;;;;;5031989;28;19921;-64
2024/02/16 13:19:12;;;;;;;;;;;;;;;;;;5028906;28;20261;-64
2024/02/16 13:21:38;;;;;;;;;;;;;;;;;;5031663;28;19932;-65
2024/02/16 13:26:30;;;;;;;;;;;;;;;;;;5026387;22;19929;-64
2024/02/16 13:28:56;;;;;;;;;;;;;;;;;;5006874;28;19932;-64
2024/02/16 13:31:22;;;;;;;;;;;;;;;;;;5011710;28;19957;-64
2024/02/16 13:33:48;;;;;;;;;;;;;;;;;;5007569;28;20015;-65
2024/02/16 13:36:14;;;;;;;;;;;;;;;;;;5012948;28;19925;-62
2024/02/16 13:38:40;;;;;;;;;;;;;;;;;;5012613;28;19921;-63
2024/02/16 13:41:06;;;;;;;;;;;;;;;;;;5006437;28;19921;-63
2024/02/16 13:43:32;;;;;;;;;;;;;;;;;;5012885;28;19930;-63
2024/02/16 13:45:58;;;;;;;;;;;;;;;;;;5012668;28;20335;-63
2024/02/16 13:48:24;;;;;;;;;;;;;;;;;;5009474;28;19948;-63
2024/02/16 13:50:50;;;;;;;;;;;;;;;;;;5012587;28;20539;-63
2024/02/16 13:53:16;;;;;;;;;;;;;;;;;;5013196;28;20305;-64
2024/02/16 13:55:43;;;;;;;;;;;;;;;;;;5000265;28;19922;-64
2024/02/16 13:58:09;;;;;;;;;;;;;;;;;;5008663;28;19930;-63
2024/02/16 14:00:35;;;;;;;;;;;;;;;;;;5011091;28;19929;-64
2024/02/16 14:03:01;;;;;;;;;;;;;;;;;;5012940;28;20530;-63
2024/02/16 14:05:27;;;;;;;;;;;;;;;;;;5004508;28;19921;-63
2024/02/16 14:07:54;;;;;;;;;;;;;;;;;;5011199;28;19925;-63
2024/02/16 14:10:20;;;;;;;;;;;;;;;;;;5011078;28;19944;-63
2024/02/16 14:12:46;;;;;;;;;;;;;;;;;;4994942;28;19922;-63
2024/02/16 14:15:15;;;;;;;;;;;;;;;;;;4992535;28;19929;-63
2024/02/16 14:17:41;;;;;;;;;;;;;;;;;;4992659;28;20044;-64
2024/02/16 14:20:07;;;;;;;;;;;;;;;;;;4997187;28;19928;-63
2024/02/16 14:22:33;;;;;;;;;;;;;;;;;;5011439;28;19925;-63
2024/02/16 14:24:59;;;;;;;;;;;;;;;;;;5010740;28;19926;-63
2024/02/16 14:27:25;;;;;;;;;;;;;;;;;;4998098;28;19922;-63
2024/02/16 14:29:51;;;;;;;;;;;;;;;;;;4991828;28;19936;-63
2024/02/16 14:32:17;;;;;;;;;;;;;;;;;;4992098;28;20294;-64
2024/02/16 14:34:43;;;;;;;;;;;;;;;;;;5008625;28;19925;-63
2024/02/16 14:37:09;;;;;;;;;;;;;;;;;;5011294;28;20310;-63
2024/02/16 14:39:35;;;;;;;;;;;;;;;;;;5010495;28;20015;-64
2024/02/16 14:42:01;;;;;;;;;;;;;;;;;;5008610;28;20008;-63
2024/02/16 14:44:27;;;;;;;;;;;;;;;;;;5011401;28;20005;-63
2024/02/16 14:46:53;;;;;;;;;;;;;;;;;;5012388;28;20028;-63
2024/02/16 14:49:24;;;;;;;;;;;;;;;;;;5012039;28;20024;-63
2024/02/16 14:51:50;;;;;;;;;;;;;;;;;;5012355;28;20304;-63
2024/02/16 14:54:16;;;;;;;;;;;;;;;;;;5012123;28;20368;-64
2024/02/16 14:56:42;;;;;;;;;;;;;;;;;;5010730;28;19927;-64
2024/02/16 14:59:10;;;;;;;;;;;;;;;;;;4993792;28;20157;-64
2024/02/16 15:01:36;;;;;;;;;;;;;;;;;;5011586;28;20012;-64
2024/02/16 15:04:02;;;;;;;;;;;;;;;;;;5007141;28;20021;-64
2024/02/16 15:06:29;;;;;;;;;;;;;;;;;;4992680;28;20045;-64
2024/02/16 15:08:55;;;;;;;;;;;;;;;;;;4992679;28;19930;-63
2024/02/16 15:11:20;;;;;;;;;;;;;;;;;;4992602;28;19926;-63
2024/02/16 15:13:49;;;;;;;;;;;;;;;;;;4988958;28;20323;-64
2024/02/16 15:16:15;;;;;;;;;;;;;;;;;;5011633;28;20016;-64
2024/02/16 15:18:40;;;;;;;;;;;;;;;;;;5012070;28;20008;-64
2024/02/16 15:21:06;;;;;;;;;;;;;;;;;;5012193;28;19925;-64
2024/02/16 15:23:33;;;;;;;;;;;;;;;;;;5016056;28;19925;-64
2024/02/16 15:25:59;;;;;;;;;;;;;;;;;;5013566;28;19968;-64
2024/02/16 15:28:25;;;;;;;;;;;;;;;;;;5012649;28;19957;-64
2024/02/16 15:30:51;;;;;;;;;;;;;;;;;;5014432;28;19932;-64
2024/02/16 15:33:17;;;;;;;;;;;;;;;;;;5006202;28;20419;-64
2024/02/16 15:35:43;;;;;;;;;;;;;;;;;;4996211;28;19929;-64
2024/02/16 15:38:09;;;;;;;;;;;;;;;;;;4996312;28;19929;-64
2024/02/16 15:40:35;;;;;;;;;;;;;;;;;;4994810;28;20331;-64
2024/02/16 15:43:02;;;;;;;;;;;;;;;;;;5008876;28;19977;-64
2024/02/16 15:45:28;;;;;;;;;;;;;;;;;;4997142;28;19961;-63
2024/02/16 15:47:54;;;;;;;;;;;;;;;;;;5015530;28;20622;-63
2024/02/16 15:50:19;;;;;;;;;;;;;;;;;;5009876;28;20041;-63
2024/02/16 15:52:45;;;;;;;;;;;;;;;;;;5012047;28;20550;-64
2024/02/16 15:55:12;;;;;;;;;;;;;;;;;;5013410;28;19921;-64
2024/02/16 15:57:38;;;;;;;;;;;;;;;;;;5014319;28;19925;-64
2024/02/16 16:00:06;;;;;;;;;;;;;;;;;;5008183;28;19929;-64
2024/02/16 16:02:32;;;;;;;;;;;;;;;;;;5011432;28;19929;-64
2024/02/16 16:04:57;;;;;;;;;;;;;;;;;;4999346;28;19925;-62
2024/02/16 16:07:23;;;;;;;;;;;;;;;;;;5010989;28;19929;-63
2024/02/16 16:09:49;;;;;;;;;;;;;;;;;;5012347;28;19925;-63
2024/02/16 16:12:15;;;;;;;;;;;;;;;;;;5013096;28;19925;-63
2024/02/16 16:14:41;;;;;;;;;;;;;;;;;;5006705;28;20334;-62
2024/02/16 16:17:07;;;;;;;;;;;;;;;;;;4998001;28;19922;-62
2024/02/16 16:19:33;;;;;;;;;;;;;;;;;;4999327;28;19926;-63
2024/02/16 16:21:59;;;;;;;;;;;;;;;;;;5009226;28;19979;-63
2024/02/16 16:24:25;;;;;;;;;;;;;;;;;;5010128;28;19929;-63
2024/02/16 16:26:52;;;;;;;;;;;;;;;;;;4991296;28;19932;-63
2024/02/16 16:29:18;;;;;;;;;;;;;;;;;;4993488;28;19984;-63
2024/02/16 16:31:45;;;;;;;;;;;;;;;;;;4998684;28;20348;-63
2024/02/16 16:34:11;;;;;;;;;;;;;;;;;;4990498;28;19932;-63
2024/02/16 16:36:37;;;;;;;;;;;;;;;;;;4974011;28;20315;-64
2024/02/16 16:39:06;;;;;;;;;;;;;;;;;;4997919;28;19933;-64
2024/02/16 16:41:32;;;;;;;;;;;;;;;;;;4996204;28;19932;-64